sensor_id;sensor_type;location;lat;lon;timestamp;pressure;altitude;pressure_sealevel;temperature;humidity
55263;BME280;41125;48.752;9.168;2024-01-15T00:00:30;95759.25;;;-2.67;79.29
55263;BME280;41125;48.752;9.168;2024-01-15T00:01:02;95767.91;;;-2.72;79.59
55263;BME280;41125;48.752;9.168;2024-01-15T00:01:35;95763.75;;;-2.67;79.84
55263;BME280;41125;48.752;9.168;2024-01-15T00:02:07;95759.00;;;-2.65;79.33
55263;BME280;41125;48.752;9.168;2024-01-15T00:02:39;95756.81;;;-2.68;79.42
55263;BME280;41125;48.752;9.168;2024-01-15T00:03:11;95764.22;;;-2.71;79.90
55263;BME280;41125;48.752;9.168;2024-01-15T00:03:42;95759.72;;;-2.70;79.71
55263;BME280;41125;48.752;9.168;2024-01-15T00:04:13;95762.13;;;-2.68;79.71
55263;BME280;41125;48.752;9.168;2024-01-15T00:04:45;95760.53;;;-2.70;79.67
55263;BME280;41125;48.752;9.168;2024-01-15T00:05:16;95759.38;;;-2.74;79.44
55263;BME280;41125;48.752;9.168;2024-01-15T00:05:47;95759.03;;;-2.77;79.88
55263;BME280;41125;48.752;9.168;2024-01-15T00:06:18;95768.31;;;-2.80;80.55
55263;BME280;41125;48.752;9.168;2024-01-15T00:06:50;95769.94;;;-2.79;80.41
55263;BME280;41125;48.752;9.168;2024-01-15T00:07:21;95759.84;;;-2.77;80.29
55263;BME280;41125;48.752;9.168;2024-01-15T00:07:52;95757.75;;;-2.75;80.44
55263;BME280;41125;48.752;9.168;2024-01-15T00:08:24;95756.16;;;-2.76;80.01
55263;BME280;41125;48.752;9.168;2024-01-15T00:08:57;95758.91;;;-2.71;79.88
55263;BME280;41125;48.752;9.168;2024-01-15T00:09:29;95748.37;;;-2.65;79.31
55263;BME280;41125;48.752;9.168;2024-01-15T00:10:03;95759.12;;;-2.72;79.04
55263;BME280;41125;48.752;9.168;2024-01-15T00:10:34;95758.34;;;-2.73;79.85
55263;BME280;41125;48.752;9.168;2024-01-15T00:11:07;95762.03;;;-2.74;80.02
55263;BME280;41125;48.752;9.168;2024-01-15T00:11:38;95755.69;;;-2.73;79.85
55263;BME280;41125;48.752;9.168;2024-01-15T00:12:10;95762.03;;;-2.74;79.70
55263;BME280;41125;48.752;9.168;2024-01-15T00:12:41;95755.69;;;-2.73;80.02
55263;BME280;41125;48.752;9.168;2024-01-15T00:13:12;95757.75;;;-2.75;79.66
55263;BME280;41125;48.752;9.168;2024-01-15T00:13:44;95759.84;;;-2.77;80.11
55263;BME280;41125;48.752;9.168;2024-01-15T00:14:15;95763.00;;;-2.80;80.10
55263;BME280;41125;48.752;9.168;2024-01-15T00:14:51;95760.34;;;-2.80;80.58
55263;BME280;41125;48.752;9.168;2024-01-15T00:15:22;95766.47;;;-2.79;80.63
55263;BME280;41125;48.752;9.168;2024-01-15T00:15:53;95751.00;;;-2.82;80.46
55263;BME280;41125;48.752;9.168;2024-01-15T00:16:25;95751.47;;;-2.85;81.05
55263;BME280;41125;48.752;9.168;2024-01-15T00:16:56;95757.13;;;-2.82;81.20
55263;BME280;41125;48.752;9.168;2024-01-15T00:17:27;95754.81;;;-2.78;80.50
55263;BME280;41125;48.752;9.168;2024-01-15T00:17:59;95755.69;;;-2.73;80.26
55263;BME280;41125;48.752;9.168;2024-01-15T00:18:30;95761.78;;;-2.72;80.13
55263;BME280;41125;48.752;9.168;2024-01-15T00:19:01;95753.13;;;-2.67;79.82
55263;BME280;41125;48.752;9.168;2024-01-15T00:19:32;95752.56;;;-2.70;79.62
55263;BME280;41125;48.752;9.168;2024-01-15T00:20:04;95757.63;;;-2.68;79.97
55263;BME280;41125;48.752;9.168;2024-01-15T00:20:36;95756.00;;;-2.69;80.13
55263;BME280;41125;48.752;9.168;2024-01-15T00:21:10;95748.53;;;-2.72;79.90
55263;BME280;41125;48.752;9.168;2024-01-15T00:21:42;95763.19;;;-2.70;79.84
55263;BME280;41125;48.752;9.168;2024-01-15T00:22:13;95748.84;;;-2.68;79.83
55263;BME280;41125;48.752;9.168;2024-01-15T00:22:45;95742.97;;;-2.71;80.02
55263;BME280;41125;48.752;9.168;2024-01-15T00:23:16;95741.03;;;-2.75;80.10
55263;BME280;41125;48.752;9.168;2024-01-15T00:23:47;95739.13;;;-2.80;80.28
55263;BME280;41125;48.752;9.168;2024-01-15T00:24:18;95750.19;;;-2.83;80.76
55263;BME280;41125;48.752;9.168;2024-01-15T00:24:50;95745.12;;;-2.84;81.14
55263;BME280;41125;48.752;9.168;2024-01-15T00:25:21;95746.50;;;-2.82;80.92
55263;BME280;41125;48.752;9.168;2024-01-15T00:25:52;95745.47;;;-2.81;80.72
55263;BME280;41125;48.752;9.168;2024-01-15T00:26:24;95745.69;;;-2.82;81.24
55263;BME280;41125;48.752;9.168;2024-01-15T00:26:55;95742.25;;;-2.83;81.31
55263;BME280;41125;48.752;9.168;2024-01-15T00:27:26;95742.47;;;-2.84;81.07
55263;BME280;41125;48.752;9.168;2024-01-15T00:27:57;95744.31;;;-2.85;80.95
55263;BME280;41125;48.752;9.168;2024-01-15T00:28:29;95746.97;;;-2.85;81.35
55263;BME280;41125;48.752;9.168;2024-01-15T00:29:00;95748.59;;;-2.84;81.22
55263;BME280;41125;48.752;9.168;2024-01-15T00:29:32;95752.62;;;-2.81;81.19
55263;BME280;41125;48.752;9.168;2024-01-15T00:30:04;95749.50;;;-2.78;80.67
55263;BME280;41125;48.752;9.168;2024-01-15T00:30:35;95746.03;;;-2.79;80.52
55263;BME280;41125;48.752;9.168;2024-01-15T00:31:06;95741.19;;;-2.82;81.03
55263;BME280;41125;48.752;9.168;2024-01-15T00:31:38;95745.38;;;-2.86;80.79
55263;BME280;41125;48.752;9.168;2024-01-15T00:32:09;95758.53;;;-2.91;80.88
55263;BME280;41125;48.752;9.168;2024-01-15T00:32:40;95750.56;;;-2.91;81.44
55263;BME280;41125;48.752;9.168;2024-01-15T00:33:15;95755.87;;;-2.91;81.71
55263;BME280;41125;48.752;9.168;2024-01-15T00:33:46;95752.66;;;-2.93;81.84
55263;BME280;41125;48.752;9.168;2024-01-15T00:34:17;95756.91;;;-2.92;82.32
55263;BME280;41125;48.752;9.168;2024-01-15T00:34:49;95755.31;;;-2.93;81.95
55263;BME280;41125;48.752;9.168;2024-01-15T00:35:21;95750.81;;;-2.92;82.17
55263;BME280;41125;48.752;9.168;2024-01-15T00:35:53;95752.88;;;-2.94;82.05
55263;BME280;41125;48.752;9.168;2024-01-15T00:36:24;95754.16;;;-2.97;82.62
55263;BME280;41125;48.752;9.168;2024-01-15T00:36:55;95746.09;;;-3.02;82.43
55263;BME280;41125;48.752;9.168;2024-01-15T00:37:26;95751.88;;;-3.05;82.64
55263;BME280;41125;48.752;9.168;2024-01-15T00:37:58;95755.56;;;-3.06;83.01
55263;BME280;41125;48.752;9.168;2024-01-15T00:38:29;95755.09;;;-3.03;83.03
55263;BME280;41125;48.752;9.168;2024-01-15T00:39:00;95756.72;;;-3.02;82.97
55263;BME280;41125;48.752;9.168;2024-01-15T00:39:31;95756.72;;;-3.02;83.19
55263;BME280;41125;48.752;9.168;2024-01-15T00:40:04;95755.78;;;-2.96;83.07
55263;BME280;41125;48.752;9.168;2024-01-15T00:40:35;95755.31;;;-2.93;82.96
55263;BME280;41125;48.752;9.168;2024-01-15T00:41:09;95756.81;;;-2.97;82.57
55263;BME280;41125;48.752;9.168;2024-01-15T00:41:41;95748.28;;;-2.99;83.04
55263;BME280;41125;48.752;9.168;2024-01-15T00:42:12;95752.22;;;-3.01;82.88
55263;BME280;41125;48.752;9.168;2024-01-15T00:42:43;95753.47;;;-3.04;83.24
55263;BME280;41125;48.752;9.168;2024-01-15T00:43:14;95753.94;;;-3.07;83.13
55263;BME280;41125;48.752;9.168;2024-01-15T00:43:49;95749.09;;;-3.10;83.47
55263;BME280;41125;48.752;9.168;2024-01-15T00:44:22;95758.09;;;-3.11;83.80
55263;BME280;41125;48.752;9.168;2024-01-15T00:44:53;95762.87;;;-3.13;83.65
55263;BME280;41125;48.752;9.168;2024-01-15T00:45:25;95750.88;;;-3.16;83.94
55263;BME280;41125;48.752;9.168;2024-01-15T00:45:56;95756.41;;;-3.17;84.25
55263;BME280;41125;48.752;9.168;2024-01-15T00:46:27;95754.00;;;-3.19;84.48
55263;BME280;41125;48.752;9.168;2024-01-15T00:46:58;95753.75;;;-3.17;84.68
55263;BME280;41125;48.752;9.168;2024-01-15T00:47:30;95750.06;;;-3.16;84.59
55263;BME280;41125;48.752;9.168;2024-01-15T00:48:02;95754.91;;;-3.13;84.89
55263;BME280;41125;48.752;9.168;2024-01-15T00:48:33;95758.09;;;-3.11;84.44
55263;BME280;41125;48.752;9.168;2024-01-15T00:49:05;95758.22;;;-3.06;84.32
55263;BME280;41125;48.752;9.168;2024-01-15T00:49:36;95760.41;;;-3.03;84.35
55263;BME280;41125;48.752;9.168;2024-01-15T00:50:08;95748.97;;;-3.04;84.29
55263;BME280;41125;48.752;9.168;2024-01-15T00:50:39;95755.66;;;-3.01;84.04
55263;BME280;41125;48.752;9.168;2024-01-15T00:51:10;95761.53;;;-2.99;83.97
55263;BME280;41125;48.752;9.168;2024-01-15T00:51:42;95754.63;;;-3.00;83.65
55263;BME280;41125;48.752;9.168;2024-01-15T00:52:13;95759.94;;;-3.00;84.06
55263;BME280;41125;48.752;9.168;2024-01-15T00:52:48;95762.81;;;-3.01;83.76
55263;BME280;41125;48.752;9.168;2024-01-15T00:53:19;95758.78;;;-3.04;83.87
55263;BME280;41125;48.752;9.168;2024-01-15T00:53:53;95762.94;;;-3.08;84.25
55263;BME280;41125;48.752;9.168;2024-01-15T00:54:25;95767.22;;;-3.07;84.33
55263;BME280;41125;48.752;9.168;2024-01-15T00:54:56;95766.62;;;-3.09;84.21
55263;BME280;41125;48.752;9.168;2024-01-15T00:55:30;95760.06;;;-3.07;84.70
55263;BME280;41125;48.752;9.168;2024-01-15T00:56:03;95756.37;;;-3.06;84.65
55263;BME280;41125;48.752;9.168;2024-01-15T00:56:34;95764.09;;;-3.04;84.77
55263;BME280;41125;48.752;9.168;2024-01-15T00:57:09;95763.06;;;-3.03;84.43
55263;BME280;41125;48.752;9.168;2024-01-15T00:57:40;95764.09;;;-3.04;84.55
55263;BME280;41125;48.752;9.168;2024-01-15T00:58:12;95766.19;;;-3.06;84.74
55263;BME280;41125;48.752;9.168;2024-01-15T00:58:46;95759.81;;;-3.05;85.04
55263;BME280;41125;48.752;9.168;2024-01-15T00:59:18;95768.59;;;-3.05;84.79
55263;BME280;41125;48.752;9.168;2024-01-15T00:59:51;95757.97;;;-3.05;84.69
55263;BME280;41125;48.752;9.168;2024-01-15T01:00:22;95759.25;;;-3.07;84.74
55263;BME280;41125;48.752;9.168;2024-01-15T01:00:53;95750.72;;;-3.09;84.66
55263;BME280;41125;48.752;9.168;2024-01-15T01:01:25;95759.72;;;-3.10;84.97
55263;BME280;41125;48.752;9.168;2024-01-15T01:01:57;95762.94;;;-3.08;85.11
55263;BME280;41125;48.752;9.168;2024-01-15T01:02:28;95762.94;;;-3.08;85.25
55263;BME280;41125;48.752;9.168;2024-01-15T01:02:59;95761.09;;;-3.08;85.08
55263;BME280;41125;48.752;9.168;2024-01-15T01:03:35;95763.75;;;-3.08;85.20
55263;BME280;41125;48.752;9.168;2024-01-15T01:04:07;95757.06;;;-3.10;85.62
55263;BME280;41125;48.752;9.168;2024-01-15T01:04:38;95764.00;;;-3.09;85.31
55263;BME280;41125;48.752;9.168;2024-01-15T01:05:13;95767.31;;;-3.02;85.64
55263;BME280;41125;48.752;9.168;2024-01-15T01:05:44;95764.78;;;-2.97;84.99
55263;BME280;41125;48.752;9.168;2024-01-15T01:06:15;95757.38;;;-2.95;85.12
55263;BME280;41125;48.752;9.168;2024-01-15T01:06:47;95762.69;;;-2.95;84.59
55263;BME280;41125;48.752;9.168;2024-01-15T01:07:21;95752.53;;;-2.98;84.54
55263;BME280;41125;48.752;9.168;2024-01-15T01:07:52;95759.94;;;-3.00;84.67
55263;BME280;41125;48.752;9.168;2024-01-15T01:08:23;95760.41;;;-3.03;85.03
55263;BME280;41125;48.752;9.168;2024-01-15T01:08:55;95762.00;;;-3.02;85.04
55263;BME280;41125;48.752;9.168;2024-01-15T01:09:26;95757.28;;;-3.00;85.25
55263;BME280;41125;48.752;9.168;2024-01-15T01:10:00;95763.16;;;-2.98;85.11
55263;BME280;41125;48.752;9.168;2024-01-15T01:10:31;95757.38;;;-2.95;85.14
55263;BME280;41125;48.752;9.168;2024-01-15T01:11:03;95754.97;;;-2.96;85.00
55263;BME280;41125;48.752;9.168;2024-01-15T01:11:34;95756.91;;;-2.92;84.77
55263;BME280;41125;48.752;9.168;2024-01-15T01:12:06;95755.41;;;-2.88;84.95
55263;BME280;41125;48.752;9.168;2024-01-15T01:12:37;95749.16;;;-2.82;84.54
55263;BME280;41125;48.752;9.168;2024-01-15T01:13:09;95742.25;;;-2.83;84.43
55263;BME280;41125;48.752;9.168;2024-01-15T01:13:41;95748.59;;;-2.84;84.55
55263;BME280;41125;48.752;9.168;2024-01-15T01:14:12;95751.47;;;-2.85;84.67
55263;BME280;41125;48.752;9.168;2024-01-15T01:14:47;95749.06;;;-2.87;84.46
55263;BME280;41125;48.752;9.168;2024-01-15T01:15:18;95759.22;;;-2.84;84.45
55263;BME280;41125;48.752;9.168;2024-01-15T01:15:49;95752.28;;;-2.85;84.28
55263;BME280;41125;48.752;9.168;2024-01-15T01:16:21;95755.97;;;-2.86;84.55
55263;BME280;41125;48.752;9.168;2024-01-15T01:16:52;95759.34;;;-2.90;84.65
55263;BME280;41125;48.752;9.168;2024-01-15T01:17:23;95755.87;;;-2.91;84.87
55263;BME280;41125;48.752;9.168;2024-01-15T01:17:55;95751.59;;;-2.92;85.01
55263;BME280;41125;48.752;9.168;2024-01-15T01:18:26;95753.47;;;-2.92;85.02
55263;BME280;41125;48.752;9.168;2024-01-15T01:18:57;95749.44;;;-2.95;85.26
55263;BME280;41125;48.752;9.168;2024-01-15T01:19:28;95757.38;;;-2.95;85.62
55263;BME280;41125;48.752;9.168;2024-01-15T01:20:01;95759.22;;;-2.95;85.49
55263;BME280;41125;48.752;9.168;2024-01-15T01:20:35;95752.06;;;-2.95;85.55
55263;BME280;41125;48.752;9.168;2024-01-15T01:21:06;95753.69;;;-2.94;85.82
55263;BME280;41125;48.752;9.168;2024-01-15T01:21:38;95757.16;;;-2.93;85.65
55263;BME280;41125;48.752;9.168;2024-01-15T01:22:13;95753.69;;;-2.94;85.78
55263;BME280;41125;48.752;9.168;2024-01-15T01:22:44;95759.00;;;-2.94;85.76
55263;BME280;41125;48.752;9.168;2024-01-15T01:23:15;95753.13;;;-2.96;86.10
55263;BME280;41125;48.752;9.168;2024-01-15T01:23:47;95755.78;;;-2.96;86.04
55263;BME280;41125;48.752;9.168;2024-01-15T01:24:18;95754.16;;;-2.97;86.15
55263;BME280;41125;48.752;9.168;2024-01-15T01:24:49;95764.78;;;-2.97;86.07
55263;BME280;41125;48.752;9.168;2024-01-15T01:25:21;95750.94;;;-2.99;86.35
55263;BME280;41125;48.752;9.168;2024-01-15T01:25:52;95757.63;;;-2.96;86.17
55263;BME280;41125;48.752;9.168;2024-01-15T01:26:23;95753.13;;;-2.96;86.65
55263;BME280;41125;48.752;9.168;2024-01-15T01:26:54;95756.56;;;-2.95;86.67
55263;BME280;41125;48.752;9.168;2024-01-15T01:27:25;95750.47;;;-2.96;86.21
55263;BME280;41125;48.752;9.168;2024-01-15T01:27:57;95752.06;;;-2.95;86.39
55263;BME280;41125;48.752;9.168;2024-01-15T01:28:28;95746.53;;;-2.93;86.53
55263;BME280;41125;48.752;9.168;2024-01-15T01:28:59;95753.22;;;-2.91;86.09
55263;BME280;41125;48.752;9.168;2024-01-15T01:29:30;95750.34;;;-2.89;86.40
55263;BME280;41125;48.752;9.168;2024-01-15T01:30:03;95758.53;;;-2.91;86.25
55263;BME280;41125;48.752;9.168;2024-01-15T01:30:34;95754.25;;;-2.92;86.13
55263;BME280;41125;48.752;9.168;2024-01-15T01:31:05;95756.09;;;-2.92;86.12
55263;BME280;41125;48.752;9.168;2024-01-15T01:31:45;95757.13;;;-2.82;86.36
55263;BME280;41125;48.752;9.168;2024-01-15T01:32:16;95743.13;;;-2.77;85.79
55263;BME280;41125;48.752;9.168;2024-01-15T01:32:47;95743.91;;;-2.77;85.51
55263;BME280;41125;48.752;9.168;2024-01-15T01:33:18;95747.94;;;-2.74;85.38
55263;BME280;41125;48.752;9.168;2024-01-15T01:33:50;95748.75;;;-2.74;85.20
55263;BME280;41125;48.752;9.168;2024-01-15T01:34:21;95749.09;;;-2.70;85.14
55263;BME280;41125;48.752;9.168;2024-01-15T01:34:52;95738.94;;;-2.73;84.98
55263;BME280;41125;48.752;9.168;2024-01-15T01:35:23;95748.41;;;-2.77;84.99
55263;BME280;41125;48.752;9.168;2024-01-15T01:35:54;95746.56;;;-2.77;85.50
55263;BME280;41125;48.752;9.168;2024-01-15T01:36:26;95744.25;;;-2.73;85.16
55263;BME280;41125;48.752;9.168;2024-01-15T01:36:59;95752.09;;;-2.66;84.76
55263;BME280;41125;48.752;9.168;2024-01-15T01:37:31;95740.87;;;-2.68;84.43
55263;BME280;41125;48.752;9.168;2024-01-15T01:38:04;95750.00;;;-2.64;84.72
55263;BME280;41125;48.752;9.168;2024-01-15T01:38:36;95745.25;;;-2.62;84.74
55263;BME280;41125;48.752;9.168;2024-01-15T01:39:07;95746.72;;;-2.55;84.25
55263;BME280;41125;48.752;9.168;2024-01-15T01:39:41;95745.91;;;-2.55;84.21
55263;BME280;41125;48.752;9.168;2024-01-15T01:40:12;95746.88;;;-2.61;84.23
55263;BME280;41125;48.752;9.168;2024-01-15T01:40:44;95749.53;;;-2.61;84.03
55263;BME280;41125;48.752;9.168;2024-01-15T01:41:19;95739.94;;;-2.62;84.49
55263;BME280;41125;48.752;9.168;2024-01-15T01:41:50;95744.31;;;-2.56;84.35
55263;BME280;41125;48.752;9.168;2024-01-15T01:42:22;95742.47;;;-2.56;84.11
55263;BME280;41125;48.752;9.168;2024-01-15T01:42:53;95751.72;;;-2.58;84.24
55263;BME280;41125;48.752;9.168;2024-01-15T01:43:25;95753.78;;;-2.60;84.41
55263;BME280;41125;48.752;9.168;2024-01-15T01:43:57;95750.56;;;-2.62;84.61
55263;BME280;41125;48.752;9.168;2024-01-15T01:44:30;95752.41;;;-2.63;84.63
55263;BME280;41125;48.752;9.168;2024-01-15T01:45:03;95747.53;;;-2.54;84.27
55263;BME280;41125;48.752;9.168;2024-01-15T01:45:34;95746.41;;;-2.58;84.47
55263;BME280;41125;48.752;9.168;2024-01-15T01:46:06;95745.81;;;-2.60;84.58
55263;BME280;41125;48.752;9.168;2024-01-15T01:46:38;95748.16;;;-2.64;84.37
55263;BME280;41125;48.752;9.168;2024-01-15T01:47:14;95750.00;;;-2.64;84.67
55263;BME280;41125;48.752;9.168;2024-01-15T01:47:45;95748.16;;;-2.64;84.60
55263;BME280;41125;48.752;9.168;2024-01-15T01:48:20;95742.50;;;-2.67;84.83
55263;BME280;41125;48.752;9.168;2024-01-15T01:48:52;95748.84;;;-2.68;84.91
55263;BME280;41125;48.752;9.168;2024-01-15T01:49:24;95745.41;;;-2.69;85.53
55263;BME280;41125;48.752;9.168;2024-01-15T01:49:56;95749.53;;;-2.61;85.12
55263;BME280;41125;48.752;9.168;2024-01-15T01:50:29;95746.06;;;-2.62;84.97
55263;BME280;41125;48.752;9.168;2024-01-15T01:51:03;95747.09;;;-2.63;84.62
55263;BME280;41125;48.752;9.168;2024-01-15T01:51:35;95749.44;;;-2.66;84.87
55263;BME280;41125;48.752;9.168;2024-01-15T01:52:11;95745.72;;;-2.65;85.00
55263;BME280;41125;48.752;9.168;2024-01-15T01:52:42;95756.34;;;-2.65;84.92
55263;BME280;41125;48.752;9.168;2024-01-15T01:53:14;95742.50;;;-2.67;85.36
55263;BME280;41125;48.752;9.168;2024-01-15T01:53:46;95751.75;;;-2.70;85.52
55263;BME280;41125;48.752;9.168;2024-01-15T01:54:19;95751.75;;;-2.70;85.46
55263;BME280;41125;48.752;9.168;2024-01-15T01:54:52;95748.75;;;-2.74;85.55
55263;BME280;41125;48.752;9.168;2024-01-15T01:55:25;95750.84;;;-2.76;85.79
55263;BME280;41125;48.752;9.168;2024-01-15T01:55:58;95754.06;;;-2.74;86.09
55263;BME280;41125;48.752;9.168;2024-01-15T01:56:30;95744.50;;;-2.75;85.80
55263;BME280;41125;48.752;9.168;2024-01-15T01:57:04;95747.72;;;-2.73;86.10
55263;BME280;41125;48.752;9.168;2024-01-15T01:57:36;95751.50;;;-2.68;86.16
55263;BME280;41125;48.752;9.168;2024-01-15T01:58:08;95749.91;;;-2.70;85.96
55263;BME280;41125;48.752;9.168;2024-01-15T01:58:39;95742.41;;;-2.73;86.33
55263;BME280;41125;48.752;9.168;2024-01-15T01:59:11;95739.75;;;-2.73;86.37
55263;BME280;41125;48.752;9.168;2024-01-15T01:59:45;95746.66;;;-2.72;86.01
55263;BME280;41125;48.752;9.168;2024-01-15T02:00:17;95747.47;;;-2.71;86.17
55263;BME280;41125;48.752;9.168;2024-01-15T02:00:49;95750.72;;;-2.69;86.18
55263;BME280;41125;48.752;9.168;2024-01-15T02:01:21;95747.81;;;-2.67;86.31
55263;BME280;41125;48.752;9.168;2024-01-15T02:01:55;95743.16;;;-2.60;85.82
55263;BME280;41125;48.752;9.168;2024-01-15T02:02:26;95740.63;;;-2.55;85.45
55263;BME280;41125;48.752;9.168;2024-01-15T02:02:58;95740.13;;;-2.52;85.09
55263;BME280;41125;48.752;9.168;2024-01-15T02:03:30;95741.84;;;-2.46;85.11
55263;BME280;41125;48.752;9.168;2024-01-15T02:04:03;95737.56;;;-2.47;84.73
55263;BME280;41125;48.752;9.168;2024-01-15T02:04:36;95739.91;;;-2.51;84.65
55263;BME280;41125;48.752;9.168;2024-01-15T02:05:09;95738.06;;;-2.50;84.46
55263;BME280;41125;48.752;9.168;2024-01-15T02:05:40;95736.44;;;-2.51;84.49
55263;BME280;41125;48.752;9.168;2024-01-15T02:06:11;95742.22;;;-2.54;84.61
55263;BME280;41125;48.752;9.168;2024-01-15T02:06:44;95746.41;;;-2.58;85.02
55263;BME280;41125;48.752;9.168;2024-01-15T02:07:15;95743.50;;;-2.57;85.04
55263;BME280;41125;48.752;9.168;2024-01-15T02:07:48;95751.22;;;-2.55;85.26
55263;BME280;41125;48.752;9.168;2024-01-15T02:08:20;95742.47;;;-2.56;84.97
55263;BME280;41125;48.752;9.168;2024-01-15T02:08:51;95748.00;;;-2.57;85.30
55263;BME280;41125;48.752;9.168;2024-01-15T02:09:24;95740.28;;;-2.59;85.62
55263;BME280;41125;48.752;9.168;2024-01-15T02:09:56;95752.75;;;-2.59;85.53
55263;BME280;41125;48.752;9.168;2024-01-15T02:10:27;95746.16;;;-2.57;85.60
55263;BME280;41125;48.752;9.168;2024-01-15T02:10:58;95753.88;;;-2.55;85.61
55263;BME280;41125;48.752;9.168;2024-01-15T02:11:30;95751.22;;;-2.55;85.55
55263;BME280;41125;48.752;9.168;2024-01-15T02:12:02;95747.53;;;-2.54;85.29
55263;BME280;41125;48.752;9.168;2024-01-15T02:12:33;95752.28;;;-2.56;85.23
55263;BME280;41125;48.752;9.168;2024-01-15T02:13:05;95747.53;;;-2.54;85.75
55263;BME280;41125;48.752;9.168;2024-01-15T02:13:36;95753.19;;;-2.51;85.25
55263;BME280;41125;48.752;9.168;2024-01-15T02:14:09;95753.41;;;-2.52;85.46
55263;BME280;41125;48.752;9.168;2024-01-15T02:14:49;95745.22;;;-2.51;85.20
55263;BME280;41125;48.752;9.168;2024-01-15T02:15:21;95741.41;;;-2.55;85.35
55263;BME280;41125;48.752;9.168;2024-01-15T02:15:52;95744.31;;;-2.56;85.39
55263;BME280;41125;48.752;9.168;2024-01-15T02:16:24;95748.81;;;-2.57;85.22
55263;BME280;41125;48.752;9.168;2024-01-15T02:16:56;95746.50;;;-2.53;85.39
55263;BME280;41125;48.752;9.168;2024-01-15T02:17:27;95741.75;;;-2.51;84.96
55263;BME280;41125;48.752;9.168;2024-01-15T02:18:03;95738.84;;;-2.50;84.94
55263;BME280;41125;48.752;9.168;2024-01-15T02:18:42;95737.56;;;-2.47;85.24
55263;BME280;41125;48.752;9.168;2024-01-15T02:19:18;95737.09;;;-2.44;84.60
55263;BME280;41125;48.752;9.168;2024-01-15T02:19:50;95737.09;;;-2.44;84.72
55263;BME280;41125;48.752;9.168;2024-01-15T02:20:21;95737.56;;;-2.47;84.49
55263;BME280;41125;48.752;9.168;2024-01-15T02:20:53;95742.31;;;-2.49;84.73
55263;BME280;41125;48.752;9.168;2024-01-15T02:21:24;95731.69;;;-2.49;84.50
55263;BME280;41125;48.752;9.168;2024-01-15T02:21:57;95732.84;;;-2.45;84.66
55263;BME280;41125;48.752;9.168;2024-01-15T02:22:28;95733.41;;;-2.43;84.34
55263;BME280;41125;48.752;9.168;2024-01-15T02:23:13;95736.78;;;-2.48;84.57
55263;BME280;41125;48.752;9.168;2024-01-15T02:23:45;95733.88;;;-2.46;84.63
55263;BME280;41125;48.752;9.168;2024-01-15T02:24:16;95730.66;;;-2.48;84.64
55263;BME280;41125;48.752;9.168;2024-01-15T02:24:48;95731.94;;;-2.51;84.45
55263;BME280;41125;48.752;9.168;2024-01-15T02:25:19;95739.66;;;-2.49;84.66
55263;BME280;41125;48.752;9.168;2024-01-15T02:25:51;95731.13;;;-2.51;84.58
55263;BME280;41125;48.752;9.168;2024-01-15T02:26:23;95734.25;;;-2.54;84.86
55263;BME280;41125;48.752;9.168;2024-01-15T02:26:54;95730.00;;;-2.55;85.02
55263;BME280;41125;48.752;9.168;2024-01-15T02:27:25;95732.75;;;-2.50;84.76
55263;BME280;41125;48.752;9.168;2024-01-15T02:27:58;95735.97;;;-2.48;84.37
55263;BME280;41125;48.752;9.168;2024-01-15T02:28:29;95729.03;;;-2.49;84.31
55263;BME280;41125;48.752;9.168;2024-01-15T02:29:01;95728.94;;;-2.54;84.39
55263;BME280;41125;48.752;9.168;2024-01-15T02:29:33;95738.75;;;-2.55;84.85
55263;BME280;41125;48.752;9.168;2024-01-15T02:30:06;95737.38;;;-2.57;84.75
55263;BME280;41125;48.752;9.168;2024-01-15T02:30:39;95736.25;;;-2.61;85.09
55263;BME280;41125;48.752;9.168;2024-01-15T02:31:10;95735.09;;;-2.65;85.01
55263;BME280;41125;48.752;9.168;2024-01-15T02:31:42;95730.28;;;-2.68;85.59
55263;BME280;41125;48.752;9.168;2024-01-15T02:32:13;95731.78;;;-2.73;85.60
55263;BME280;41125;48.752;9.168;2024-01-15T02:32:45;95734.69;;;-2.74;85.54
55263;BME280;41125;48.752;9.168;2024-01-15T02:33:17;95737.09;;;-2.73;85.89
55263;BME280;41125;48.752;9.168;2024-01-15T02:33:48;95740.09;;;-2.69;85.71
55263;BME280;41125;48.752;9.168;2024-01-15T02:34:19;95740.41;;;-2.65;85.81
55263;BME280;41125;48.752;9.168;2024-01-15T02:34:50;95733.81;;;-2.63;85.56
55263;BME280;41125;48.752;9.168;2024-01-15T02:35:21;95735.69;;;-2.63;85.53
55263;BME280;41125;48.752;9.168;2024-01-15T02:35:53;95738.81;;;-2.66;85.44
55263;BME280;41125;48.752;9.168;2024-01-15T02:36:24;95727.38;;;-2.67;85.46
55263;BME280;41125;48.752;9.168;2024-01-15T02:36:55;95731.88;;;-2.67;85.45
55263;BME280;41125;48.752;9.168;2024-01-15T02:37:26;95735.59;;;-2.68;85.81
55263;BME280;41125;48.752;9.168;2024-01-15T02:37:57;95736.06;;;-2.72;85.64
55263;BME280;41125;48.752;9.168;2024-01-15T02:38:31;95739.41;;;-2.76;85.76
55263;BME280;41125;48.752;9.168;2024-01-15T02:39:03;95739.13;;;-2.80;85.86
55263;BME280;41125;48.752;9.168;2024-01-15T02:39:34;95728.97;;;-2.83;86.63
55263;BME280;41125;48.752;9.168;2024-01-15T02:40:07;95737.41;;;-2.86;86.46
55263;BME280;41125;48.752;9.168;2024-01-15T02:40:40;95737.97;;;-2.84;86.67
55263;BME280;41125;48.752;9.168;2024-01-15T02:41:11;95734.28;;;-2.83;86.66
55263;BME280;41125;48.752;9.168;2024-01-15T02:41:48;95734.38;;;-2.78;86.54
55263;BME280;41125;48.752;9.168;2024-01-15T02:42:19;95739.13;;;-2.80;86.61
55263;BME280;41125;48.752;9.168;2024-01-15T02:42:50;95733.81;;;-2.80;86.85
55263;BME280;41125;48.752;9.168;2024-01-15T02:43:22;95737.50;;;-2.81;86.71
55263;BME280;41125;48.752;9.168;2024-01-15T02:43:53;95736.94;;;-2.83;86.93
55263;BME280;41125;48.752;9.168;2024-01-15T02:44:26;95728.38;;;-2.85;86.64
55263;BME280;41125;48.752;9.168;2024-01-15T02:44:57;95734.75;;;-2.86;87.24
55263;BME280;41125;48.752;9.168;2024-01-15T02:45:28;95736.81;;;-2.88;87.10
55263;BME280;41125;48.752;9.168;2024-01-15T02:45:59;95732.66;;;-2.84;86.91
55263;BME280;41125;48.752;9.168;2024-01-15T02:46:31;95737.97;;;-2.84;86.90
55263;BME280;41125;48.752;9.168;2024-01-15T02:47:02;95731.38;;;-2.81;87.10
55263;BME280;41125;48.752;9.168;2024-01-15T02:47:36;95728.50;;;-2.80;86.90
55263;BME280;41125;48.752;9.168;2024-01-15T02:48:07;95735.97;;;-2.77;86.67
55263;BME280;41125;48.752;9.168;2024-01-15T02:48:42;95732.25;;;-2.76;86.62
55263;BME280;41125;48.752;9.168;2024-01-15T02:49:13;95725.59;;;-2.78;87.08
55263;BME280;41125;48.752;9.168;2024-01-15T02:49:47;95732.19;;;-2.81;87.69